createdAt,value
2022-12-01T00:01:59.662Z,2.40
2022-12-01T00:04:05.477Z,2.40
2022-12-01T00:06:11.812Z,2.40
2022-12-01T00:08:15.075Z,2.40
2022-12-01T00:10:26.696Z,2.40
2022-12-01T00:12:31.303Z,2.40
2022-12-01T00:14:34.884Z,2.40
2022-12-01T00:16:38.530Z,2.40
2022-12-01T00:18:41.941Z,2.40
2022-12-01T00:20:49.074Z,2.40
2022-12-01T00:22:52.576Z,2.40
2022-12-01T00:24:56.065Z,2.40
2022-12-01T00:26:59.472Z,2.40
2022-12-01T00:29:02.760Z,2.50
2022-12-01T00:31:08.590Z,2.40
2022-12-01T00:33:12.004Z,2.40
2022-12-01T00:35:16.581Z,2.50
2022-12-01T00:37:21.225Z,2.50
2022-12-01T00:39:24.519Z,2.50
2022-12-01T00:41:27.833Z,2.50
2022-12-01T00:43:31.180Z,2.50
2022-12-01T00:45:34.345Z,2.50
2022-12-01T00:47:37.589Z,2.50
2022-12-01T00:49:40.892Z,2.50
2022-12-01T00:51:44.064Z,2.50
2022-12-01T00:53:48.750Z,2.50
2022-12-01T00:55:53.849Z,2.50
2022-12-01T00:57:56.997Z,2.50
2022-12-01T01:00:00.158Z,2.50
2022-12-01T01:02:04.021Z,2.50
2022-12-01T01:04:07.560Z,2.50
2022-12-01T01:06:12.843Z,2.50
2022-12-01T01:08:16.087Z,2.50
2022-12-01T01:10:20.728Z,2.50
2022-12-01T01:12:23.941Z,2.50
2022-12-01T01:14:27.206Z,2.50
2022-12-01T01:16:30.809Z,2.50
2022-12-01T01:18:34.778Z,2.50
2022-12-01T01:20:37.976Z,2.50
2022-12-01T01:22:41.132Z,2.50
2022-12-01T01:24:44.443Z,2.50
2022-12-01T01:26:49.064Z,2.50
2022-12-01T01:28:53.207Z,2.50
2022-12-01T01:30:56.590Z,2.50
2022-12-01T01:33:00.707Z,2.50
2022-12-01T01:35:03.895Z,2.60
2022-12-01T01:37:07.086Z,2.50
2022-12-01T01:39:10.255Z,2.60
2022-12-01T01:41:13.898Z,2.50
2022-12-01T01:43:38.744Z,2.50
2022-12-01T01:45:42.040Z,2.50
2022-12-01T01:47:45.650Z,2.50
2022-12-01T01:49:50.197Z,2.60
2022-12-01T01:51:55.486Z,2.60
2022-12-01T01:54:03.710Z,2.60
2022-12-01T01:56:08.794Z,2.60
2022-12-01T01:58:12.882Z,2.60
2022-12-01T02:00:20.309Z,2.60
2022-12-01T02:02:25.668Z,2.50
2022-12-01T02:04:30.255Z,2.50
2022-12-01T02:06:33.697Z,2.50
2022-12-01T02:08:38.300Z,2.50
2022-12-01T02:11:03.162Z,2.60
2022-12-01T02:13:16.809Z,2.60
2022-12-01T02:15:30.999Z,2.60
2022-12-01T02:17:42.856Z,2.60
2022-12-01T02:20:37.366Z,2.60
2022-12-01T02:22:54.970Z,2.60
2022-12-01T02:25:20.659Z,2.60
2022-12-01T02:27:42.019Z,2.60
2022-12-01T02:30:07.837Z,2.60
2022-12-01T02:32:19.059Z,2.60
2022-12-01T02:34:31.209Z,2.60
2022-12-01T02:36:37.025Z,2.60
2022-12-01T02:38:47.473Z,2.60
2022-12-01T02:40:56.658Z,2.50
2022-12-01T02:43:05.783Z,2.50
2022-12-01T02:45:14.898Z,2.50
2022-12-01T02:47:20.863Z,2.50
2022-12-01T02:49:29.875Z,2.50
2022-12-01T02:51:35.800Z,2.50
2022-12-01T02:53:39.193Z,2.40
2022-12-01T02:55:49.244Z,2.50
2022-12-01T02:57:52.487Z,2.40
2022-12-01T02:59:57.532Z,2.50
2022-12-01T03:02:10.106Z,2.40
2022-12-01T03:04:36.018Z,2.40
2022-12-01T03:06:50.158Z,2.30
2022-12-01T03:09:02.819Z,2.40
2022-12-01T03:11:06.307Z,2.30
2022-12-01T03:13:21.179Z,2.30
2022-12-01T03:15:35.838Z,2.30
2022-12-01T03:17:45.277Z,2.40
2022-12-01T03:19:55.111Z,2.40
2022-12-01T03:22:06.106Z,2.40
2022-12-01T03:24:12.799Z,2.40
2022-12-01T03:26:19.474Z,2.30
2022-12-01T03:28:30.006Z,2.30
2022-12-01T03:30:36.161Z,2.30
2022-12-01T03:32:46.622Z,2.20
2022-12-01T03:34:54.644Z,2.20
2022-12-01T03:37:02.378Z,2.20
2022-12-01T03:39:13.586Z,2.20
2022-12-01T03:41:21.081Z,2.20
2022-12-01T03:43:29.241Z,2.20
2022-12-01T03:45:35.801Z,2.20
2022-12-01T03:47:40.535Z,2.20
2022-12-01T03:49:45.541Z,2.20
2022-12-01T03:51:59.750Z,2.20
2022-12-01T03:54:09.316Z,2.20
2022-12-01T03:56:15.769Z,2.20
2022-12-01T03:58:23.323Z,2.20
2022-12-01T04:00:27.583Z,2.20
2022-12-01T04:02:31.092Z,2.20
2022-12-01T04:04:34.508Z,2.20
2022-12-01T04:06:37.757Z,2.20
2022-12-01T04:08:42.584Z,2.20
2022-12-01T04:10:46.103Z,2.20
2022-12-01T04:12:48.456Z,2.20
2022-12-01T04:14:51.760Z,2.20
2022-12-01T04:16:55.128Z,2.20
2022-12-01T04:18:58.363Z,2.20
2022-12-01T04:21:01.639Z,2.20
2022-12-01T04:23:04.993Z,2.20
2022-12-01T04:25:10.599Z,2.20
2022-12-01T04:27:14.414Z,2.10
2022-12-01T04:29:17.686Z,2.10
2022-12-01T04:31:21.041Z,2.10
2022-12-01T04:33:24.450Z,2.10
2022-12-01T04:35:27.739Z,2.00
2022-12-01T04:37:30.972Z,2.00
2022-12-01T04:39:34.220Z,1.90
2022-12-01T04:41:38.840Z,1.90
2022-12-01T04:43:42.405Z,1.90
2022-12-01T04:45:45.944Z,1.90
2022-12-01T04:47:49.309Z,1.90
2022-12-01T04:49:52.679Z,1.90
2022-12-01T04:51:56.090Z,1.80
2022-12-01T04:53:59.654Z,1.80
2022-12-01T04:56:03.692Z,1.90
2022-12-01T04:58:10.888Z,1.90
2022-12-01T05:00:15.455Z,1.90
2022-12-01T05:02:18.922Z,1.90
2022-12-01T05:04:22.632Z,1.90
2022-12-01T05:06:28.941Z,1.90
2022-12-01T05:08:32.258Z,1.90
2022-12-01T05:10:36.859Z,1.80
2022-12-01T05:12:41.277Z,1.80
2022-12-01T05:14:46.985Z,1.90
2022-12-01T05:16:50.456Z,1.80
2022-12-01T05:19:16.642Z,1.80
2022-12-01T05:21:19.041Z,1.90
2022-12-01T05:23:22.679Z,1.90
2022-12-01T05:25:26.010Z,1.80
2022-12-01T05:27:29.248Z,1.90
2022-12-01T05:29:33.086Z,1.90
2022-12-01T05:31:37.899Z,1.90
2022-12-01T05:33:41.197Z,1.80
2022-12-01T05:35:44.967Z,1.80
2022-12-01T05:37:48.360Z,1.80
2022-12-01T05:39:51.664Z,1.80
2022-12-01T05:41:55.058Z,1.80
2022-12-01T05:43:58.538Z,1.70
2022-12-01T05:46:01.953Z,1.70
2022-12-01T05:48:07.115Z,1.70
2022-12-01T05:50:11.000Z,1.60
2022-12-01T05:52:14.306Z,1.70
2022-12-01T05:54:17.492Z,1.60
2022-12-01T05:56:20.675Z,1.60
2022-12-01T05:58:23.876Z,1.60
2022-12-01T06:00:27.299Z,1.60
2022-12-01T06:02:30.563Z,1.60
2022-12-01T06:04:35.489Z,1.60
2022-12-01T06:06:39.888Z,1.60
2022-12-01T06:08:43.264Z,1.50
2022-12-01T06:10:47.474Z,1.50
2022-12-01T06:12:50.877Z,1.50
2022-12-01T06:14:54.060Z,1.40
2022-12-01T06:16:57.297Z,1.40
2022-12-01T06:19:00.744Z,1.40
2022-12-01T06:21:07.055Z,1.40
2022-12-01T06:23:10.268Z,1.40
2022-12-01T06:25:13.480Z,1.40
2022-12-01T06:27:16.826Z,1.40
2022-12-01T06:29:20.061Z,1.40
2022-12-01T06:31:23.351Z,1.40
2022-12-01T06:33:26.739Z,1.40
2022-12-01T06:35:30.133Z,1.40
2022-12-01T06:37:34.857Z,1.40
2022-12-01T06:39:38.556Z,1.40
2022-12-01T06:41:41.863Z,1.40
2022-12-01T06:43:45.093Z,1.40
2022-12-01T06:45:48.557Z,1.40
2022-12-01T06:47:54.873Z,1.40
2022-12-01T06:49:58.071Z,1.50
2022-12-01T06:52:01.465Z,1.50
2022-12-01T06:54:06.316Z,1.50
2022-12-01T06:56:09.552Z,1.50
2022-12-01T06:58:12.973Z,1.50
2022-12-01T07:00:17.399Z,1.50
2022-12-01T07:02:21.260Z,1.50
2022-12-01T07:04:24.933Z,1.50
2022-12-01T07:06:28.293Z,1.40
2022-12-01T07:08:32.814Z,1.40
2022-12-01T07:10:37.613Z,1.40
2022-12-01T07:12:41.317Z,1.40
2022-12-01T07:14:44.638Z,1.40
2022-12-01T07:16:48.069Z,1.40
2022-12-01T07:18:52.696Z,1.40
2022-12-01T07:20:59.558Z,1.40
2022-12-01T07:23:02.756Z,1.40
2022-12-01T07:25:06.608Z,1.40
2022-12-01T07:27:11.311Z,1.40
2022-12-01T07:29:14.440Z,1.40
2022-12-01T07:31:20.212Z,1.40
2022-12-01T07:33:23.551Z,1.40
2022-12-01T07:35:26.940Z,1.40
2022-12-01T07:37:30.316Z,1.40
2022-12-01T07:39:33.450Z,1.50
2022-12-01T07:41:37.049Z,1.50
2022-12-01T07:43:42.002Z,1.50
2022-12-01T07:45:45.271Z,1.50
2022-12-01T07:47:48.525Z,1.40
2022-12-01T07:49:51.961Z,1.50
2022-12-01T07:51:55.227Z,1.50
2022-12-01T07:54:02.479Z,1.40
2022-12-01T07:56:08.735Z,1.50
2022-12-01T07:58:12.294Z,1.60
2022-12-01T08:00:17.836Z,1.60
2022-12-01T08:02:21.167Z,1.60
2022-12-01T08:04:24.743Z,1.60
2022-12-01T08:06:28.480Z,1.60
2022-12-01T08:08:33.489Z,1.60
2022-12-01T08:10:37.490Z,1.60
2022-12-01T08:12:41.004Z,1.60
2022-12-01T08:14:44.236Z,1.60
2022-12-01T08:16:49.734Z,1.60
2022-12-01T08:18:53.782Z,1.70
2022-12-01T08:20:58.960Z,1.70
2022-12-01T08:23:02.963Z,1.70
2022-12-01T08:25:07.184Z,1.70
2022-12-01T08:27:11.149Z,1.70
2022-12-01T08:29:19.772Z,1.70
2022-12-01T08:31:27.649Z,1.80
2022-12-01T08:33:32.896Z,1.80
2022-12-01T08:35:37.716Z,1.80
2022-12-01T08:37:41.413Z,1.80
2022-12-01T08:39:45.487Z,1.80
2022-12-01T08:41:49.607Z,1.90
2022-12-01T08:43:58.763Z,1.90
2022-12-01T08:46:03.581Z,2.00
2022-12-01T08:48:07.705Z,1.90
2022-12-01T08:50:13.323Z,1.90
2022-12-01T08:52:17.149Z,1.90
2022-12-01T08:54:21.129Z,2.00
2022-12-01T08:56:27.684Z,2.00
2022-12-01T08:58:31.381Z,2.00
2022-12-01T09:00:35.283Z,2.00
2022-12-01T09:02:39.839Z,2.20
2022-12-01T09:04:45.529Z,2.20
2022-12-01T09:06:52.735Z,2.20
2022-12-01T09:08:56.772Z,2.30
2022-12-01T09:11:01.179Z,2.30
2022-12-01T09:13:04.848Z,2.30
2022-12-01T09:15:10.145Z,2.40
2022-12-01T09:17:13.943Z,2.40
2022-12-01T09:19:24.267Z,2.50
2022-12-01T09:21:32.348Z,2.50
2022-12-01T09:23:37.633Z,2.50
2022-12-01T09:25:41.263Z,2.60
2022-12-01T09:27:44.556Z,2.60
2022-12-01T09:29:48.257Z,2.60
2022-12-01T09:31:51.983Z,2.70
2022-12-01T09:33:59.772Z,2.80
2022-12-01T09:36:03.931Z,2.90
2022-12-01T09:38:07.292Z,3.00
2022-12-01T09:40:16.450Z,2.90
2022-12-01T09:42:30.831Z,3.00
2022-12-01T09:44:43.046Z,2.90
2022-12-01T09:46:52.217Z,2.90
2022-12-01T09:48:58.130Z,3.00
2022-12-01T09:51:01.704Z,3.00
2022-12-01T09:53:09.007Z,3.00
2022-12-01T09:55:16.584Z,3.00
2022-12-01T09:57:29.694Z,2.90
2022-12-01T09:59:37.758Z,3.00
2022-12-01T10:01:45.826Z,3.00
2022-12-01T10:03:55.812Z,3.00
2022-12-01T10:06:26.721Z,3.00
2022-12-01T10:08:30.656Z,3.00
2022-12-01T10:10:39.717Z,3.00
2022-12-01T10:12:45.278Z,3.00
2022-12-01T10:14:50.060Z,3.00
2022-12-01T10:17:03.778Z,2.90
2022-12-01T10:19:15.015Z,2.90
2022-12-01T10:21:33.188Z,3.00
2022-12-01T10:23:59.739Z,3.00
2022-12-01T10:26:14.147Z,3.00
2022-12-01T10:28:46.613Z,2.90
2022-12-01T10:30:51.914Z,2.80
2022-12-01T10:32:58.451Z,2.80
2022-12-01T10:35:01.808Z,2.80
2022-12-01T10:37:05.745Z,2.80
2022-12-01T10:39:16.004Z,2.80
2022-12-01T10:41:22.615Z,2.80
2022-12-01T10:43:33.504Z,2.80
2022-12-01T10:45:43.036Z,2.80
2022-12-01T10:48:09.875Z,2.70
2022-12-01T10:50:27.954Z,2.80
2022-12-01T10:52:39.584Z,2.90
2022-12-01T10:54:43.027Z,2.90
2022-12-01T10:56:50.480Z,2.90
2022-12-01T10:58:56.535Z,3.00
2022-12-01T11:01:03.348Z,2.80
2022-12-01T11:03:07.755Z,2.80
2022-12-01T11:05:24.161Z,2.80
2022-12-01T11:07:30.144Z,2.80
2022-12-01T11:09:33.912Z,2.80
2022-12-01T11:11:40.034Z,2.80
2022-12-01T11:13:44.955Z,2.70
2022-12-01T11:15:53.815Z,2.90
2022-12-01T11:18:02.446Z,2.80
2022-12-01T11:20:28.905Z,2.80
2022-12-01T11:22:33.084Z,2.80
2022-12-01T11:24:43.312Z,2.90
2022-12-01T11:26:46.688Z,3.00
2022-12-01T11:28:57.103Z,3.00
2022-12-01T11:31:03.708Z,3.00
2022-12-01T11:33:07.064Z,3.10
2022-12-01T11:35:19.022Z,3.00
2022-12-01T11:37:25.334Z,2.90
2022-12-01T11:39:32.468Z,2.90
2022-12-01T11:41:40.429Z,2.90
2022-12-01T11:43:46.823Z,2.80
2022-12-01T11:46:00.786Z,2.80
2022-12-01T11:48:07.531Z,2.90
2022-12-01T11:50:26.336Z,2.90
2022-12-01T11:52:31.875Z,3.00
2022-12-01T11:54:35.280Z,3.00
2022-12-01T11:56:38.431Z,2.90
2022-12-01T11:58:41.924Z,3.10
2022-12-01T12:00:50.544Z,3.10
2022-12-01T12:03:09.937Z,3.00
2022-12-01T12:05:47.161Z,3.10
2022-12-01T12:08:00.065Z,3.10
2022-12-01T12:10:21.392Z,3.00
2022-12-01T12:12:39.013Z,3.10
2022-12-01T12:14:52.807Z,3.10
2022-12-01T12:17:20.426Z,3.20
2022-12-01T12:19:59.948Z,3.30
2022-12-01T12:22:12.491Z,3.10
2022-12-01T12:24:39.139Z,3.10
2022-12-01T12:26:52.021Z,3.20
2022-12-01T12:29:13.656Z,3.20
2022-12-01T12:31:28.449Z,3.20
2022-12-01T12:34:01.985Z,3.20
2022-12-01T12:36:15.335Z,3.20
2022-12-01T12:38:32.266Z,3.20
2022-12-01T12:40:44.062Z,3.10
2022-12-01T12:43:00.337Z,3.00
2022-12-01T12:45:11.365Z,3.00
2022-12-01T12:47:27.569Z,3.00
2022-12-01T12:49:40.786Z,3.10
2022-12-01T12:51:52.105Z,3.10
2022-12-01T12:53:59.936Z,3.10
2022-12-01T12:56:06.957Z,3.10
2022-12-01T12:58:17.662Z,3.10
2022-12-01T13:00:24.894Z,3.10
2022-12-01T13:02:35.878Z,3.10
2022-12-01T13:04:43.708Z,3.10
2022-12-01T13:06:53.094Z,3.10
2022-12-01T13:09:03.438Z,3.10
2022-12-01T13:11:14.486Z,3.00
2022-12-01T13:13:25.830Z,3.10
2022-12-01T13:15:31.062Z,3.10
2022-12-01T13:17:37.795Z,3.10
2022-12-01T13:19:44.664Z,3.10
2022-12-01T13:21:52.574Z,3.00
2022-12-01T13:23:56.241Z,3.00
2022-12-01T13:26:02.036Z,3.00
2022-12-01T13:28:14.005Z,3.00
2022-12-01T13:30:23.537Z,3.10
2022-12-01T13:32:34.129Z,3.00
2022-12-01T13:34:41.210Z,3.00
2022-12-01T13:36:52.056Z,2.90
2022-12-01T13:39:00.150Z,3.00
2022-12-01T13:41:25.045Z,3.00
2022-12-01T13:43:28.466Z,3.00
2022-12-01T13:45:36.437Z,3.00
2022-12-01T13:47:50.412Z,3.00
2022-12-01T13:49:54.381Z,3.00
2022-12-01T13:52:28.413Z,3.10
2022-12-01T13:54:31.988Z,3.00
2022-12-01T13:56:47.972Z,3.00
2022-12-01T13:58:53.319Z,3.00
2022-12-01T14:01:43.113Z,3.00
2022-12-01T14:03:56.875Z,3.00
2022-12-01T14:06:09.640Z,3.00
2022-12-01T14:08:23.502Z,3.00
2022-12-01T14:10:30.988Z,2.90
2022-12-01T14:12:37.915Z,2.90
2022-12-01T14:14:45.957Z,2.90
2022-12-01T14:16:52.360Z,3.00
2022-12-01T14:18:57.967Z,3.00
2022-12-01T14:21:03.217Z,3.00
2022-12-01T14:23:24.297Z,3.00
2022-12-01T14:25:30.895Z,3.00
2022-12-01T14:27:36.935Z,3.00
2022-12-01T14:29:43.137Z,2.90
2022-12-01T14:32:28.295Z,2.90
2022-12-01T14:34:34.512Z,2.90
2022-12-01T14:36:42.207Z,2.90
2022-12-01T14:38:48.467Z,2.90
2022-12-01T14:40:53.820Z,2.90
2022-12-01T14:43:16.378Z,2.90
2022-12-01T14:45:27.939Z,2.90
2022-12-01T14:47:43.917Z,2.90
2022-12-01T14:49:53.775Z,2.90
2022-12-01T14:52:04.006Z,2.90
2022-12-01T14:54:17.999Z,2.90
2022-12-01T14:56:24.008Z,2.90
2022-12-01T14:58:29.882Z,3.00
2022-12-01T15:00:37.702Z,2.90
2022-12-01T15:02:42.783Z,2.90
2022-12-01T15:05:08.500Z,2.80
2022-12-01T15:07:13.475Z,2.80
2022-12-01T15:09:36.033Z,2.80
2022-12-01T15:11:49.898Z,2.70
2022-12-01T15:13:54.856Z,2.80
2022-12-01T15:15:59.809Z,2.80
2022-12-01T15:18:03.667Z,2.70
2022-12-01T15:20:31.258Z,2.70
2022-12-01T15:22:35.460Z,2.70
2022-12-01T15:24:40.730Z,2.70
2022-12-01T15:26:49.107Z,2.70
2022-12-01T15:29:04.687Z,2.70
2022-12-01T15:31:13.476Z,2.70
2022-12-01T15:33:27.161Z,2.70
2022-12-01T15:35:32.266Z,2.70
2022-12-01T15:37:44.460Z,2.70
2022-12-01T15:39:52.356Z,2.70
2022-12-01T15:41:56.315Z,2.70
2022-12-01T15:44:04.241Z,2.60
2022-12-01T15:46:14.552Z,2.70
2022-12-01T15:48:25.768Z,2.70
2022-12-01T15:50:31.389Z,2.70
2022-12-01T15:52:43.790Z,2.60
2022-12-01T15:54:50.945Z,2.60
2022-12-01T15:56:56.955Z,2.70
2022-12-01T15:59:05.877Z,2.60
2022-12-01T16:01:13.418Z,2.60
2022-12-01T16:03:17.286Z,2.60
2022-12-01T16:05:24.143Z,2.60
2022-12-01T16:08:04.474Z,2.60
2022-12-01T16:10:00.335Z,2.60
2022-12-01T16:12:25.386Z,2.60
2022-12-01T16:14:28.808Z,2.60
2022-12-01T16:16:37.771Z,2.60
2022-12-01T16:18:41.663Z,2.60
2022-12-01T16:20:45.499Z,2.60
2022-12-01T16:22:51.911Z,2.60
2022-12-01T16:24:57.655Z,2.60
2022-12-01T16:27:03.733Z,2.60
2022-12-01T16:29:20.014Z,2.60
2022-12-01T16:31:23.548Z,2.60
2022-12-01T16:33:28.689Z,2.60
2022-12-01T16:35:34.044Z,2.60
2022-12-01T16:37:37.299Z,2.70
2022-12-01T16:39:40.828Z,2.60
2022-12-01T16:41:46.902Z,2.60
2022-12-01T16:44:12.869Z,2.60
2022-12-01T16:46:14.629Z,2.60
2022-12-01T16:48:20.290Z,2.60
2022-12-01T16:50:24.808Z,2.60
2022-12-01T16:52:45.358Z,2.70
2022-12-01T16:54:50.555Z,2.70
2022-12-01T16:56:55.464Z,2.60
2022-12-01T16:58:58.793Z,2.60
2022-12-01T17:01:02.018Z,2.60
2022-12-01T17:03:06.048Z,2.60
2022-12-01T17:05:11.496Z,2.60
2022-12-01T17:07:14.835Z,2.60
2022-12-01T17:09:18.086Z,2.60
2022-12-01T17:11:21.299Z,2.70
2022-12-01T17:13:26.227Z,2.60
2022-12-01T17:15:29.511Z,2.60
2022-12-01T17:17:32.880Z,2.60
2022-12-01T17:19:36.356Z,2.60
2022-12-01T17:21:39.647Z,2.60
2022-12-01T17:23:42.940Z,2.60
2022-12-01T17:25:46.278Z,2.60
2022-12-01T17:27:49.546Z,2.60
2022-12-01T17:29:54.159Z,2.60
2022-12-01T17:31:57.487Z,2.60
2022-12-01T17:34:00.711Z,2.60
2022-12-01T17:36:06.944Z,2.60
2022-12-01T17:38:10.526Z,2.60
2022-12-01T17:40:15.048Z,2.60
2022-12-01T17:42:18.581Z,2.60
2022-12-01T17:44:28.066Z,2.60
2022-12-01T17:46:33.062Z,2.60
2022-12-01T17:48:38.139Z,2.60
2022-12-01T17:50:41.483Z,2.60
2022-12-01T17:52:44.715Z,2.60
2022-12-01T17:54:48.366Z,2.60
2022-12-01T17:56:51.827Z,2.60
2022-12-01T17:58:55.052Z,2.60
2022-12-01T18:00:58.462Z,2.60
2022-12-01T18:03:03.146Z,2.60
2022-12-01T18:05:07.757Z,2.60
2022-12-01T18:07:11.284Z,2.60
2022-12-01T18:09:14.519Z,2.60
2022-12-01T18:11:18.578Z,2.60
2022-12-01T18:13:22.383Z,2.60
2022-12-01T18:15:29.214Z,2.60
2022-12-01T18:17:35.200Z,2.60
2022-12-01T18:19:40.655Z,2.60
2022-12-01T18:21:43.989Z,2.60
2022-12-01T18:23:51.172Z,2.60
2022-12-01T18:25:54.527Z,2.60
2022-12-01T18:27:58.880Z,2.60
2022-12-01T18:30:02.119Z,2.60
2022-12-01T18:32:05.729Z,2.60
2022-12-01T18:34:09.178Z,2.60
2022-12-01T18:36:16.877Z,2.70
2022-12-01T18:38:20.313Z,2.60
2022-12-01T18:40:24.217Z,2.70
2022-12-01T18:42:27.643Z,2.60
2022-12-01T18:44:31.103Z,2.70
2022-12-01T18:46:35.148Z,2.60
2022-12-01T18:48:38.733Z,2.60
2022-12-01T18:50:41.952Z,2.70
2022-12-01T18:52:46.649Z,2.70
2022-12-01T18:54:50.280Z,2.70
2022-12-01T18:56:55.114Z,2.70
2022-12-01T18:58:59.790Z,2.60
2022-12-01T19:01:03.973Z,2.60
2022-12-01T19:03:07.497Z,2.60
2022-12-01T19:05:11.312Z,2.70
2022-12-01T19:07:14.693Z,2.70
2022-12-01T19:09:19.440Z,2.60
2022-12-01T19:11:23.525Z,2.70
2022-12-01T19:13:26.838Z,2.70
2022-12-01T19:15:30.138Z,2.70
2022-12-01T19:17:33.602Z,2.70
2022-12-01T19:19:37.820Z,2.70
2022-12-01T19:21:41.151Z,2.70
2022-12-01T19:23:45.227Z,2.70
2022-12-01T19:25:50.057Z,2.70
2022-12-01T19:27:53.444Z,2.70
2022-12-01T19:29:56.959Z,2.70
2022-12-01T19:32:01.183Z,2.70
2022-12-01T19:34:10.609Z,2.60
2022-12-01T19:36:18.096Z,2.70
2022-12-01T19:38:21.367Z,2.70
2022-12-01T19:40:26.291Z,2.60
2022-12-01T19:42:31.168Z,2.70
2022-12-01T19:44:34.550Z,2.70
2022-12-01T19:46:38.109Z,2.70
2022-12-01T19:48:41.849Z,2.70
2022-12-01T19:50:46.764Z,2.70
2022-12-01T19:52:50.238Z,2.70
2022-12-01T19:54:54.466Z,2.70
2022-12-01T19:56:57.952Z,2.70
2022-12-01T19:59:02.619Z,2.70
2022-12-01T20:01:06.813Z,2.70
2022-12-01T20:03:10.263Z,2.70
2022-12-01T20:05:13.653Z,2.70
2022-12-01T20:07:17.082Z,2.70
2022-12-01T20:09:20.537Z,2.70
2022-12-01T20:11:24.649Z,2.70
2022-12-01T20:13:28.170Z,2.70
2022-12-01T20:15:34.408Z,2.70
2022-12-01T20:17:38.202Z,2.70
2022-12-01T20:19:41.420Z,2.70
2022-12-01T20:21:44.800Z,2.70
2022-12-01T20:23:49.736Z,2.70
2022-12-01T20:25:54.176Z,2.70
2022-12-01T20:27:57.520Z,2.70
2022-12-01T20:30:01.129Z,2.70
2022-12-01T20:32:06.353Z,2.70
2022-12-01T20:34:12.923Z,2.60
2022-12-01T20:36:16.515Z,2.70
2022-12-01T20:38:25.788Z,2.70
2022-12-01T20:40:30.773Z,2.70
2022-12-01T20:42:33.988Z,2.70
2022-12-01T20:44:40.027Z,2.70
2022-12-01T20:46:51.109Z,2.70
2022-12-01T20:48:55.848Z,2.70
2022-12-01T20:51:04.044Z,2.70
2022-12-01T20:53:07.640Z,2.70
2022-12-01T20:55:11.422Z,2.70
2022-12-01T20:57:14.809Z,2.70
2022-12-01T20:59:18.251Z,2.70
2022-12-01T21:01:22.411Z,2.70
2022-12-01T21:03:25.639Z,2.70
2022-12-01T21:05:32.579Z,2.70
2022-12-01T21:07:36.128Z,2.70
2022-12-01T21:09:39.586Z,2.70
2022-12-01T21:12:04.316Z,2.70
2022-12-01T21:14:08.058Z,2.70
2022-12-01T21:16:18.300Z,2.70
2022-12-01T21:18:23.259Z,2.70
2022-12-01T21:20:30.933Z,2.70
2022-12-01T21:22:34.678Z,2.70
2022-12-01T21:24:43.565Z,2.70
2022-12-01T21:26:49.940Z,2.70
2022-12-01T21:29:00.691Z,2.70
2022-12-01T21:31:14.065Z,2.70
2022-12-01T21:33:28.423Z,2.70
2022-12-01T21:35:33.182Z,2.70
2022-12-01T21:37:36.681Z,2.70
2022-12-01T21:39:40.396Z,2.70
2022-12-01T21:41:43.875Z,2.70
2022-12-01T21:43:47.162Z,2.70
2022-12-01T21:45:53.270Z,2.80
2022-12-01T21:48:01.734Z,2.70
2022-12-01T21:50:14.128Z,2.70
2022-12-01T21:52:21.345Z,2.70
2022-12-01T21:54:24.912Z,2.70
2022-12-01T21:56:31.738Z,2.70
2022-12-01T21:58:38.353Z,2.70
2022-12-01T22:00:43.378Z,2.70
2022-12-01T22:02:50.578Z,2.70
2022-12-01T22:04:54.566Z,2.70
2022-12-01T22:06:59.208Z,2.70
2022-12-01T22:09:15.491Z,2.70
2022-12-01T22:11:21.972Z,2.70
2022-12-01T22:13:28.258Z,2.60
2022-12-01T22:15:40.712Z,2.70
2022-12-01T22:17:44.724Z,2.60
2022-12-01T22:19:53.360Z,2.70
2022-12-01T22:22:02.111Z,2.70
2022-12-01T22:24:25.673Z,2.70
2022-12-01T22:26:28.847Z,2.70
2022-12-01T22:28:32.184Z,2.70
2022-12-01T22:30:35.458Z,2.70
2022-12-01T22:32:50.336Z,2.60
2022-12-01T22:34:56.391Z,2.70
2022-12-01T22:37:00.559Z,2.70
2022-12-01T22:39:12.643Z,2.70
2022-12-01T22:41:19.396Z,2.70
2022-12-01T22:43:45.000Z,2.70
2022-12-01T22:45:49.995Z,2.70
2022-12-01T22:47:57.367Z,2.70
2022-12-01T22:50:00.815Z,2.70
2022-12-01T22:52:11.272Z,2.70
2022-12-01T22:54:34.179Z,2.70
2022-12-01T22:56:41.808Z,2.70
2022-12-01T22:58:45.114Z,2.70
2022-12-01T23:00:48.380Z,2.70
2022-12-01T23:02:53.391Z,2.70
2022-12-01T23:04:59.981Z,2.70
2022-12-01T23:07:08.428Z,2.70
2022-12-01T23:09:13.901Z,2.70
2022-12-01T23:11:17.085Z,2.70
2022-12-01T23:13:24.010Z,2.70
2022-12-01T23:15:33.740Z,2.70
2022-12-01T23:17:39.038Z,2.70
2022-12-01T23:19:42.488Z,2.70
2022-12-01T23:21:46.029Z,2.70
2022-12-01T23:23:49.244Z,2.80
2022-12-01T23:25:52.817Z,2.80
2022-12-01T23:28:01.020Z,2.70
2022-12-01T23:30:07.248Z,2.70
2022-12-01T23:32:11.805Z,2.80
2022-12-01T23:34:17.037Z,2.80
2022-12-01T23:36:24.232Z,2.80
2022-12-01T23:38:30.643Z,2.70
2022-12-01T23:40:35.744Z,2.70
2022-12-01T23:42:40.075Z,2.70
2022-12-01T23:44:45.835Z,2.80
2022-12-01T23:46:53.114Z,2.70
2022-12-01T23:49:00.532Z,2.70
2022-12-01T23:51:03.772Z,2.70
2022-12-01T23:53:07.009Z,2.70
2022-12-01T23:55:20.754Z,2.70
2022-12-01T23:57:26.388Z,2.70
2022-12-01T23:59:31.222Z,2.70
